Beila, Mauritania
Current Conditions -  °F | °C
As of 4:30 AM on Tuesday 21 Oct 2014 (Local Time) from GQNN Reporting Station
Clear Clear  
Wind Chill: 73°   Ceiling: Unl
Heat Index: 73°   Visibility: 5mi
Dew Point: 68°   Wind: 6mph
Humidity: 83%   Direction: 350°N
Pressure: 29.85"   Gusts: NA
Location:  18.17°N, 15.87°W
Report Text: GQNN 210430Z 35005KT 8000 NSC 23/20 Q1011 NOSIG
Loading
Personal Weather Stations






























Interactive Weather Map
Tropical Storm Tracking
New forecast layout! Learn more

10-Day Weather Forecast

Advertisements
Track Severe Weather on mobile